Barnoldswick, United Kingdom
Current Conditions -  °F | °C
As of 4:20 AM on Wednesday 28 Jan 2015 (Local Time) from EGNM Reporting Station
Drizzle Drizzle  
Wind Chill: 34°   Ceiling: 600
Heat Index: 43°   Visibility: 6mi
Dew Point: 41°   Wind: 22mph
Humidity: 93%   Direction: 240°WSW
Pressure: 29.56"   Gusts: NA
Location:  53.92°N, 2.19°W
Report Text: EGNM 280420Z 24019KT 9999 -DZ BKN006 06/05 Q1001
Loading
Personal Weather Stations






























Interactive Weather Map New forecast layout! Learn more

10-Day Weather Forecast

Advertisements
Track Severe Weather on mobile